Welcome to Trans World Virtual Airlines!

Welcome TWVA's Newest Pilot:

TWA2313 Bryan Heald

Not a Trans World pilot yet?
Apply Now!




Sign-in with your pilot id or email, or register

Flight TWA7852

  • Submitted By: Austin Hill
  • Departure Airport: Kansas City International Airport (KMCI)
  • Arrival Airport: Ronald Reagan Washington National Airport (KDCA)
  • Aircraft: E170 (N173TE)
  • Flight Time: 02.48
  • Date Submitted: 08/23/2018
  • Route: MCI COU STL J24 VHP J80 J30 BUCKO DCA
  • Status: Accepted
Flight Details
Gross Revenue:
(64 load / $ 265.00 per unit
$ 16, 960.00
Fuel Cost:
(8170 fuel used @ 0.8 / unit)
$ 6, 536.00

Additional Log Information:

View Log

FS[12:30] Aircraft Title - Embraer 170 TWA
FS[12:30] Aircraft Model - E-170
FS[12:30] Flight Number TWA7852
FS[12:30] Departure KMCI
FS[12:30] Destination KDCA
FS[12:30] Boarding
FS[12:41] Pushing Back
FS[12:46] Taxiing to Runway
FS[12:52] Taking Off
FS[12:53] Taking Off
FS[12:53] 151kts
FS[12:53] pitch angle 5 degrees
FS[12:53] 15087 (lbs) of fuel onboard
FS[12:53] Climbing
FS[13:16] TOC Reached
FS[13:16] Cruise 37000
FS[14:28] TOD Reached
FS[14:28] Descending
FS[14:50] On Approach
FS[15:01] Landing Rate -95fpm
FS[15:01] 7865 (lbs) of fuel onboard
FS[15:01] pitch angle 7 degrees
FS[15:01] Taxiing to Gate
FS[15:08] Arrived
FS[15:14] Max Sim Rate: 1x
FS[15:14] kACARS_Free Version 1.0.1.1

Comments

Commenter Comment
Austin Hill KMCI 231231Z 19806KT 7SM -RA BKN071 18/15 A3013 // KDCA 231430Z 36009KT FEW040 24/11 A3010

Route Map